Time,TemperatureF,DewpointF,PressureIn,WindDirection,WindDirectionDegrees,WindSpeedMPH,WindSpeedGustMPH,Humidity,HourlyPrecipIn,Conditions,Clouds,dailyrainin,SolarRadiationWatts/m^2,SoftwareType,DateUTC
2013-11-27 00:02:00,33.5,19.5,30.28,NNW,339,9.1,10.4,56,0.00,CLR,,0.00,0.0,WeatherDisplay:10.37,2013-11-27 06:02:00,
2013-11-27 00:07:00,33.5,19.5,30.28,NW,304,3.9,5.8,56,0.00,CLR,,0.00,0.0,WeatherDisplay:10.37,2013-11-27 06:07:00,
2013-11-27 00:12:00,33.4,19.8,30.28,NNW,327,10.0,12.7,57,0.00,CLR,,0.00,0.0,WeatherDisplay:10.37,2013-11-27 06:12:00,
2013-11-27 00:17:00,33.3,19.7,30.29,NW,318,3.9,9.2,57,0.00,CLR,,0.00,0.0,WeatherDisplay:10.37,2013-11-27 06:17:00,
2013-11-27 00:22:00,33.0,19.4,30.29,NNW,327,5.0,6.9,57,0.00,CLR,,0.00,0.0,WeatherDisplay:10.37,2013-11-27 06:22:00,
2013-11-27 00:27:00,32.9,19.3,30.29,NW,315,8.1,11.5,57,0.00,CLR,,0.00,0.0,WeatherDisplay:10.37,2013-11-27 06:27:00,
2013-11-27 00:32:00,32.8,19.2,30.29,NNW,338,8.5,10.6,57,0.00,CLR,,0.00,0.0,WeatherDisplay:10.37,2013-11-27 06:32:00,
2013-11-27 00:37:00,32.8,19.2,30.29,NW,317,8.9,10.4,57,0.00,CLR,,0.00,0.0,WeatherDisplay:10.37,2013-11-27 06:37:00,
2013-11-27 00:42:00,32.7,18.7,30.29,NNW,333,1.8,6.9,56,0.00,CLR,,0.00,0.0,WeatherDisplay:10.37,2013-11-27 06:42:00,
2013-11-27 00:47:00,32.5,18.5,30.29,North,11,6.9,9.2,56,0.00,CLR,,0.00,0.0,WeatherDisplay:10.37,2013-11-27 06:47:00,
2013-11-27 00:52:00,32.4,18.4,30.29,WNW,289,0.0,1.2,56,0.00,CLR,,0.00,0.0,WeatherDisplay:10.37,2013-11-27 06:52:00,
2013-11-27 00:57:00,32.3,18.3,30.29,SW,219,3.0,6.9,56,0.00,CLR,,0.00,0.0,WeatherDisplay:10.37,2013-11-27 06:57:00,
2013-11-27 01:02:00,32.0,18.1,30.30,NW,321,1.9,2.3,56,0.00,CLR,,0.00,0.0,WeatherDisplay:10.37,2013-11-27 07:02:00,
2013-11-27 01:07:00,31.6,18.1,30.30,North,11,6.9,8.1,57,0.00,CLR,,0.00,0.0,WeatherDisplay:10.37,2013-11-27 07:07:00,
2013-11-27 01:12:00,31.4,17.9,30.30,West,265,4.5,6.9,57,0.00,CLR,,0.00,0.0,WeatherDisplay:10.37,2013-11-27 07:12:00,
2013-11-27 01:17:00,31.4,17.9,30.30,NNW,329,4.2,5.8,57,0.00,CLR,,0.00,0.0,WeatherDisplay:10.37,2013-11-27 07:17:00,
2013-11-27 01:22:00,31.4,17.5,30.30,NNW,333,7.5,9.2,56,0.00,CLR,,0.00,0.0,WeatherDisplay:10.37,2013-11-27 07:22:00,
2013-11-27 01:27:00,31.3,17.4,30.30,NNW,330,2.9,3.5,56,0.00,CLR,,0.00,0.0,WeatherDisplay:10.37,2013-11-27 07:27:00,
2013-11-27 01:32:00,31.2,17.3,30.30,North,5,2.1,5.8,56,0.00,CLR,,0.00,0.0,WeatherDisplay:10.37,2013-11-27 07:32:00,
2013-11-27 01:37:00,31.0,17.5,30.31,North,351,3.5,4.0,57,0.00,CLR,,0.00,0.0,WeatherDisplay:10.37,2013-11-27 07:37:00,
2013-11-27 01:42:00,31.0,17.1,30.31,NNW,329,7.8,11.5,56,0.00,CLR,,0.00,0.0,WeatherDisplay:10.37,2013-11-27 07:42:00,
2013-11-27 01:47:00,31.1,17.2,30.31,North,10,6.8,9.2,56,0.00,CLR,,0.00,0.0,WeatherDisplay:10.37,2013-11-27 07:47:00,
2013-11-27 01:52:00,31.0,17.1,30.31,NNW,340,4.7,5.8,56,0.00,CLR,,0.00,0.0,WeatherDisplay:10.37,2013-11-27 07:52:00,
2013-11-27 01:57:00,30.8,16.9,30.31,NNW,331,10.5,11.9,56,0.00,CLR,,0.00,0.0,WeatherDisplay:10.37,2013-11-27 07:57:00,
2013-11-27 02:02:00,30.8,16.9,30.32,NNW,336,9.8,16.1,56,0.00,CLR,,0.00,0.0,WeatherDisplay:10.37,2013-11-27 08:02:00,
2013-11-27 02:07:00,30.8,16.9,30.32,NNW,343,10.9,15.0,56,0.00,CLR,,0.00,0.0,WeatherDisplay:10.37,2013-11-27 08:07:00,
2013-11-27 02:12:00,30.8,16.9,30.31,North,5,8.6,10.4,56,0.00,CLR,,0.00,0.0,WeatherDisplay:10.37,2013-11-27 08:12:00,
2013-11-27 02:17:00,30.6,17.2,30.32,NNW,329,11.1,13.2,57,0.00,CLR,,0.00,0.0,WeatherDisplay:10.37,2013-11-27 08:17:00,
2013-11-27 02:22:00,30.6,17.2,30.32,NNW,336,10.9,11.5,57,0.00,CLR,,0.00,0.0,WeatherDisplay:10.37,2013-11-27 08:22:00,
2013-11-27 02:27:00,30.3,16.9,30.31,NNW,336,8.3,12.7,57,0.00,CLR,,0.00,0.0,WeatherDisplay:10.37,2013-11-27 08:27:00,
2013-11-27 02:32:00,30.2,17.2,30.32,NNW,330,6.8,9.2,58,0.00,CLR,,0.00,0.0,WeatherDisplay:10.37,2013-11-27 08:32:00,
2013-11-27 02:37:00,29.9,16.5,30.32,NNW,331,10.1,12.7,57,0.00,CLR,,0.00,0.0,WeatherDisplay:10.37,2013-11-27 08:37:00,
2013-11-27 02:42:00,29.7,16.7,30.32,NE,36,8.3,10.6,58,0.00,CLR,,0.00,0.0,WeatherDisplay:10.37,2013-11-27 08:42:00,
2013-11-27 02:47:00,29.6,16.2,30.32,North,355,6.3,8.1,57,0.00,CLR,,0.00,0.0,WeatherDisplay:10.37,2013-11-27 08:47:00,
2013-11-27 02:52:00,29.4,15.6,30.32,NNW,334,9.8,10.4,56,0.00,CLR,,0.00,0.0,WeatherDisplay:10.37,2013-11-27 08:52:00,
2013-11-27 02:57:00,29.2,15.0,30.32,North,355,10.3,15.0,55,0.00,CLR,,0.00,0.0,WeatherDisplay:10.37,2013-11-27 08:57:00,
2013-11-27 03:02:00,29.0,14.4,30.32,NNE,24,7.9,9.2,54,0.00,CLR,,0.00,0.0,WeatherDisplay:10.37,2013-11-27 09:02:00,
2013-11-27 03:07:00,28.8,14.2,30.32,NNE,25,8.9,11.5,54,0.00,CLR,,0.00,0.0,WeatherDisplay:10.37,2013-11-27 09:07:00,
2013-11-27 03:12:00,28.6,14.0,30.32,NNE,28,6.6,11.5,54,0.00,CLR,,0.00,0.0,WeatherDisplay:10.37,2013-11-27 09:12:00,
2013-11-27 03:17:00,28.4,13.9,30.32,NNW,337,5.1,9.2,54,0.00,CLR,,0.00,0.0,WeatherDisplay:10.37,2013-11-27 09:17:00,
2013-11-27 03:22:00,28.3,13.3,30.32,NNW,341,12.2,19.6,53,0.00,CLR,,0.00,0.0,WeatherDisplay:10.37,2013-11-27 09:22:00,
2013-11-27 03:27:00,28.2,13.2,30.32,North,350,12.0,23.0,53,0.00,CLR,,0.00,0.0,WeatherDisplay:10.37,2013-11-27 09:27:00,
2013-11-27 03:32:00,28.1,13.1,30.32,North,350,12.8,17.3,53,0.00,CLR,,0.00,0.0,WeatherDisplay:10.37,2013-11-27 09:32:00,
2013-11-27 03:37:00,28.1,13.1,30.32,NNW,337,8.1,9.2,53,0.00,CLR,,0.00,0.0,WeatherDisplay:10.37,2013-11-27 09:37:00,
2013-11-27 03:42:00,27.9,13.0,30.32,NW,323,9.0,11.9,53,0.00,CLR,,0.00,0.0,WeatherDisplay:10.37,2013-11-27 09:42:00,
2013-11-27 03:47:00,27.7,12.8,30.33,North,355,5.5,8.1,53,0.00,CLR,,0.00,0.0,WeatherDisplay:10.37,2013-11-27 09:47:00,
2013-11-27 03:52:00,27.6,13.1,30.32,NNW,339,6.5,10.6,54,0.00,CLR,,0.00,0.0,WeatherDisplay:10.37,2013-11-27 09:52:00,
2013-11-27 03:57:00,27.5,12.6,30.33,NW,304,8.6,11.5,53,0.00,CLR,,0.00,0.0,WeatherDisplay:10.37,2013-11-27 09:57:00,
2013-11-27 04:02:00,27.5,12.6,30.33,NNW,345,12.6,16.1,53,0.00,CLR,,0.00,0.0,WeatherDisplay:10.37,2013-11-27 10:02:00,
2013-11-27 04:07:00,27.4,12.5,30.33,NW,316,5.1,6.9,53,0.00,CLR,,0.00,0.0,WeatherDisplay:10.37,2013-11-27 10:07:00,
2013-11-27 04:12:00,27.2,12.3,30.33,WNW,300,9.5,10.4,53,0.00,CLR,,0.00,0.0,WeatherDisplay:10.37,2013-11-27 10:12:00,
2013-11-27 04:17:00,27.2,12.3,30.33,NNE,33,4.7,10.4,53,0.00,CLR,,0.00,0.0,WeatherDisplay:10.37,2013-11-27 10:17:00,
2013-11-27 04:22:00,27.1,12.2,30.33,NNW,346,8.7,11.5,53,0.00,CLR,,0.00,0.0,WeatherDisplay:10.37,2013-11-27 10:22:00,
2013-11-27 04:27:00,27.1,12.2,30.34,NNW,340,7.0,9.2,53,0.00,CLR,,0.00,0.0,WeatherDisplay:10.37,2013-11-27 10:27:00,
2013-11-27 04:32:00,26.9,12.5,30.34,NW,325,5.4,6.9,54,0.00,CLR,,0.00,0.0,WeatherDisplay:10.37,2013-11-27 10:32:00,
2013-11-27 04:37:00,26.6,12.2,30.34,NW,313,4.1,6.9,54,0.00,CLR,,0.00,0.0,WeatherDisplay:10.37,2013-11-27 10:37:00,
2013-11-27 04:42:00,26.3,12.3,30.35,NW,324,5.7,6.9,55,0.00,CLR,,0.00,0.0,WeatherDisplay:10.37,2013-11-27 10:42:00,
2013-11-27 04:47:00,26.1,12.1,30.35,NW,322,8.4,10.4,55,0.00,CLR,,0.00,0.0,WeatherDisplay:10.37,2013-11-27 10:47:00,
2013-11-27 04:52:00,26.3,11.9,30.35,NNW,329,6.4,9.2,54,0.00,CLR,,0.00,0.0,WeatherDisplay:10.37,2013-11-27 10:52:00,
2013-11-27 04:57:00,26.4,12.0,30.35,NNW,344,8.0,11.5,54,0.00,CLR,,0.00,0.0,WeatherDisplay:10.37,2013-11-27 10:57:00,
2013-11-27 05:02:00,26.4,12.0,30.36,NNW,346,10.0,15.0,54,0.00,CLR,,0.00,0.0,WeatherDisplay:10.37,2013-11-27 11:02:00,
2013-11-27 05:07:00,26.3,12.3,30.35,North,5,6.6,8.1,55,0.00,CLR,,0.00,0.0,WeatherDisplay:10.37,2013-11-27 11:07:00,
2013-11-27 05:12:00,26.4,11.6,30.36,North,355,8.6,10.6,53,0.00,CLR,,0.00,0.0,WeatherDisplay:10.37,2013-11-27 11:12:00,
2013-11-27 05:17:00,26.5,11.7,30.36,NNW,348,5.2,8.1,53,0.00,CLR,,0.00,0.0,WeatherDisplay:10.37,2013-11-27 11:17:00,
2013-11-27 05:22:00,26.3,11.5,30.36,NNW,327,6.9,9.2,53,0.00,CLR,,0.00,0.0,WeatherDisplay:10.37,2013-11-27 11:22:00,
2013-11-27 05:27:00,26.3,11.5,30.36,NNW,335,10.2,12.7,53,0.00,CLR,,0.00,0.0,WeatherDisplay:10.37,2013-11-27 11:27:00,
2013-11-27 05:32:00,26.3,11.5,30.37,NNW,347,6.0,8.1,53,0.00,CLR,,0.00,0.0,WeatherDisplay:10.37,2013-11-27 11:32:00,
2013-11-27 05:37:00,26.2,11.4,30.37,NNW,333,8.1,11.9,53,0.00,CLR,,0.00,0.0,WeatherDisplay:10.37,2013-11-27 11:37:00,
2013-11-27 05:42:00,26.1,11.3,30.37,North,355,7.0,9.2,53,0.00,CLR,,0.00,0.0,WeatherDisplay:10.37,2013-11-27 11:42:00,
2013-11-27 05:47:00,26.0,11.6,30.37,NW,322,5.1,8.1,54,0.00,CLR,,0.00,0.0,WeatherDisplay:10.37,2013-11-27 11:47:00,
2013-11-27 05:52:00,25.9,11.1,30.37,NNW,331,9.1,10.6,53,0.00,CLR,,0.00,0.0,WeatherDisplay:10.37,2013-11-27 11:52:00,
2013-11-27 05:57:00,25.8,11.4,30.37,NNW,340,7.5,10.6,54,0.00,CLR,,0.00,0.0,WeatherDisplay:10.37,2013-11-27 11:57:00,
2013-11-27 06:02:00,25.8,11.4,30.37,North,5,5.1,9.2,54,0.00,CLR,,0.00,0.0,WeatherDisplay:10.37,2013-11-27 12:02:00,
2013-11-27 06:07:00,25.7,11.3,30.38,North,355,4.6,8.1,54,0.00,CLR,,0.00,0.0,WeatherDisplay:10.37,2013-11-27 12:07:00,
2013-11-27 06:12:00,25.5,11.6,30.38,NW,325,4.4,5.8,55,0.00,CLR,,0.00,0.0,WeatherDisplay:10.37,2013-11-27 12:12:00,
2013-11-27 06:17:00,25.2,10.9,30.38,NW,308,7.0,9.2,54,0.00,CLR,,0.00,0.0,WeatherDisplay:10.37,2013-11-27 12:17:00,
2013-11-27 06:22:00,25.2,11.3,30.38,NNW,337,4.3,6.9,55,0.00,CLR,,0.00,0.0,WeatherDisplay:10.37,2013-11-27 12:22:00,
2013-11-27 06:27:00,25.2,10.9,30.38,NNW,344,6.1,7.9,54,0.00,CLR,,0.00,0.0,WeatherDisplay:10.37,2013-11-27 12:27:00,
2013-11-27 06:32:00,25.2,10.9,30.38,NNW,340,5.2,8.1,54,0.00,CLR,,0.00,0.0,WeatherDisplay:10.37,2013-11-27 12:32:00,
2013-11-27 06:37:00,25.2,10.9,30.38,NNW,327,4.3,5.8,54,0.00,CLR,,0.00,0.0,WeatherDisplay:10.37,2013-11-27 12:37:00,
2013-11-27 06:42:00,25.1,10.8,30.39,NNE,12,3.8,5.8,54,0.00,CLR,,0.00,0.0,WeatherDisplay:10.37,2013-11-27 12:42:00,
2013-11-27 06:47:00,25.0,11.1,30.39,NNW,338,2.6,3.5,55,0.00,CLR,,0.00,0.0,WeatherDisplay:10.37,2013-11-27 12:47:00,
2013-11-27 06:52:00,24.7,10.8,30.39,NNW,338,1.3,2.3,55,0.00,CLR,,0.00,0.0,WeatherDisplay:10.37,2013-11-27 12:52:00,
2013-11-27 06:57:00,24.3,10.8,30.39,NNW,338,0.0,1.2,56,0.00,CLR,,0.00,0.0,WeatherDisplay:10.37,2013-11-27 12:57:00,
2013-11-27 07:02:00,23.8,11.2,30.39,NNW,338,2.6,2.6,58,0.00,CLR,,0.00,5.0,WeatherDisplay:10.37,2013-11-27 13:02:00,
2013-11-27 07:07:00,23.6,11.4,30.40,NNW,346,1.8,2.6,59,0.00,CLR,,0.00,7.0,WeatherDisplay:10.37,2013-11-27 13:07:00,
2013-11-27 07:12:00,23.5,11.6,30.40,NNW,344,2.2,2.6,60,0.00,CLR,,0.00,11.0,WeatherDisplay:10.37,2013-11-27 13:12:00,
2013-11-27 07:17:00,23.2,11.7,30.40,NNW,344,2.9,4.0,61,0.00,CLR,,0.00,12.0,WeatherDisplay:10.37,2013-11-27 13:17:00,
2013-11-27 07:22:00,23.2,11.7,30.40,NW,318,2.3,3.5,61,0.00,CLR,,0.00,14.0,WeatherDisplay:10.37,2013-11-27 13:22:00,
2013-11-27 07:27:00,23.4,12.6,30.40,NW,314,1.0,2.6,63,0.00,CLR,,0.00,18.0,WeatherDisplay:10.37,2013-11-27 13:27:00,
2013-11-27 07:32:00,23.3,12.2,30.40,NW,318,3.5,3.5,62,0.00,CLR,,0.00,23.0,WeatherDisplay:10.37,2013-11-27 13:32:00,
2013-11-27 07:37:00,23.4,12.3,30.41,NNW,329,2.5,4.0,62,0.00,CLR,,0.00,32.0,WeatherDisplay:10.37,2013-11-27 13:37:00,
2013-11-27 07:42:00,23.8,12.3,30.41,NNW,329,3.5,3.5,61,0.00,CLR,,0.00,33.0,WeatherDisplay:10.37,2013-11-27 13:42:00,
2013-11-27 07:47:00,24.4,13.2,30.41,WNW,295,1.9,4.0,62,0.00,CLR,,0.00,62.0,WeatherDisplay:10.37,2013-11-27 13:47:00,
2013-11-27 07:52:00,25.2,12.9,30.41,WNW,286,2.7,3.5,59,0.00,CLR,,0.00,77.0,WeatherDisplay:10.37,2013-11-27 13:52:00,
2013-11-27 07:57:00,25.9,12.7,30.42,WNW,285,4.6,5.8,57,0.00,CLR,,0.00,102.0,WeatherDisplay:10.37,2013-11-27 13:57:00,
2013-11-27 08:02:00,26.3,11.5,30.42,WNW,291,4.6,6.9,53,0.00,CLR,,0.00,120.0,WeatherDisplay:10.37,2013-11-27 14:02:00,
2013-11-27 08:07:00,26.8,11.9,30.42,West,280,5.6,6.9,53,0.00,CLR,,0.00,137.0,WeatherDisplay:10.37,2013-11-27 14:07:00,
2013-11-27 08:12:00,27.1,11.8,30.42,NNW,336,9.2,10.4,52,0.00,CLR,,0.00,153.0,WeatherDisplay:10.37,2013-11-27 14:12:00,
2013-11-27 08:17:00,27.2,11.4,30.42,WNW,301,4.3,6.9,51,0.00,CLR,,0.00,172.0,WeatherDisplay:10.37,2013-11-27 14:17:00,
2013-11-27 08:22:00,27.5,11.7,30.42,NNW,338,4.3,6.9,51,0.00,CLR,,0.00,190.0,WeatherDisplay:10.37,2013-11-27 14:22:00,
2013-11-27 08:27:00,27.8,11.1,30.42,NW,313,4.8,6.9,49,0.00,CLR,,0.00,209.0,WeatherDisplay:10.37,2013-11-27 14:27:00,
2013-11-27 08:32:00,28.0,10.8,30.42,NNW,333,6.9,8.1,48,0.00,CLR,,0.00,227.0,WeatherDisplay:10.37,2013-11-27 14:32:00,
2013-11-27 08:37:00,28.2,11.5,30.42,NNW,331,6.0,8.1,49,0.00,CLR,,0.00,244.0,WeatherDisplay:10.37,2013-11-27 14:37:00,
2013-11-27 08:42:00,28.3,11.1,30.42,WNW,285,4.0,5.8,48,0.00,CLR,,0.00,258.0,WeatherDisplay:10.37,2013-11-27 14:42:00,
2013-11-27 08:47:00,28.4,10.7,30.42,NNW,331,5.0,7.9,47,0.00,CLR,,0.00,271.0,WeatherDisplay:10.37,2013-11-27 14:47:00,
2013-11-27 08:52:00,28.7,10.5,30.42,NNW,346,4.2,6.9,46,0.00,CLR,,0.00,285.0,WeatherDisplay:10.37,2013-11-27 14:52:00,
2013-11-27 08:57:00,29.4,11.1,30.43,NW,311,2.6,3.5,46,0.00,CLR,,0.00,301.0,WeatherDisplay:10.37,2013-11-27 14:57:00,
2013-11-27 09:02:00,29.5,10.7,30.43,NNW,335,6.8,8.1,45,0.00,CLR,,0.00,313.0,WeatherDisplay:10.37,2013-11-27 15:02:00,
2013-11-27 09:07:00,29.6,10.8,30.43,WNW,298,5.5,6.9,45,0.00,CLR,,0.00,327.0,WeatherDisplay:10.37,2013-11-27 15:07:00,
2013-11-27 09:12:00,29.9,10.1,30.43,NNW,327,5.5,6.6,43,0.00,CLR,,0.00,339.0,WeatherDisplay:10.37,2013-11-27 15:12:00,
2013-11-27 09:17:00,30.0,10.2,30.42,North,355,4.2,5.8,43,0.00,CLR,,0.00,352.0,WeatherDisplay:10.37,2013-11-27 15:17:00,
2013-11-27 09:22:00,30.8,10.9,30.42,WNW,303,7.8,12.7,43,0.00,CLR,,0.00,360.0,WeatherDisplay:10.37,2013-11-27 15:22:00,
2013-11-27 09:27:00,30.6,9.1,30.43,NW,318,6.4,10.6,40,0.00,CLR,,0.00,376.0,WeatherDisplay:10.37,2013-11-27 15:27:00,
2013-11-27 09:32:00,30.3,9.9,30.42,NW,312,6.1,8.1,42,0.00,CLR,,0.00,387.0,WeatherDisplay:10.37,2013-11-27 15:32:00,
2013-11-27 09:37:00,31.2,11.3,30.42,WNW,297,5.9,8.1,43,0.00,CLR,,0.00,401.0,WeatherDisplay:10.37,2013-11-27 15:37:00,
2013-11-27 09:42:00,31.6,10.6,30.43,NW,306,9.4,10.4,41,0.00,CLR,,0.00,411.0,WeatherDisplay:10.37,2013-11-27 15:42:00,
2013-11-27 09:47:00,31.5,9.4,30.43,West,265,2.8,9.2,39,0.00,CLR,,0.00,422.0,WeatherDisplay:10.37,2013-11-27 15:47:00,
2013-11-27 09:52:00,31.3,9.7,30.43,SW,235,3.2,5.8,40,0.00,CLR,,0.00,434.0,WeatherDisplay:10.37,2013-11-27 15:52:00,
2013-11-27 09:57:00,31.5,9.4,30.43,West,264,6.5,8.1,39,0.00,CLR,,0.00,443.0,WeatherDisplay:10.37,2013-11-27 15:57:00,
2013-11-27 10:02:00,31.8,9.6,30.43,NW,315,6.3,8.1,39,0.00,CLR,,0.00,454.0,WeatherDisplay:10.37,2013-11-27 16:02:00,
2013-11-27 10:07:00,32.3,10.6,30.43,West,271,1.9,3.5,40,0.00,CLR,,0.00,464.0,WeatherDisplay:10.37,2013-11-27 16:07:00,
2013-11-27 10:12:00,33.2,10.9,30.43,West,267,7.2,7.2,39,0.00,CLR,,0.00,475.0,WeatherDisplay:10.37,2013-11-27 16:12:00,
2013-11-27 10:17:00,33.0,9.5,30.43,WNW,297,4.8,6.9,37,0.00,CLR,,0.00,482.0,WeatherDisplay:10.37,2013-11-27 16:17:00,
2013-11-27 10:22:00,33.8,9.6,30.43,WNW,302,5.8,9.2,36,0.00,CLR,,0.00,492.0,WeatherDisplay:10.37,2013-11-27 16:22:00,
2013-11-27 10:27:00,34.2,11.2,30.43,NNE,22,7.4,9.2,38,0.00,CLR,,0.00,499.0,WeatherDisplay:10.37,2013-11-27 16:27:00,
2013-11-27 10:32:00,34.2,9.4,30.42,NNE,16,6.0,8.1,35,0.00,CLR,,0.00,506.0,WeatherDisplay:10.37,2013-11-27 16:32:00,
2013-11-27 10:37:00,34.3,8.8,30.42,NW,321,5.5,8.1,34,0.00,CLR,,0.00,515.0,WeatherDisplay:10.37,2013-11-27 16:37:00,
2013-11-27 10:42:00,34.3,10.1,30.42,WNW,285,7.1,10.6,36,0.00,CLR,,0.00,522.0,WeatherDisplay:10.37,2013-11-27 16:42:00,
2013-11-27 10:47:00,34.9,10.0,30.42,WNW,291,9.2,10.4,35,0.00,CLR,,0.00,529.0,WeatherDisplay:10.37,2013-11-27 16:47:00,
2013-11-27 10:52:00,35.0,10.1,30.42,NW,309,6.2,8.1,35,0.00,CLR,,0.00,536.0,WeatherDisplay:10.37,2013-11-27 16:52:00,
2013-11-27 10:57:00,35.8,10.1,30.41,WSW,258,7.3,9.2,34,0.00,CLR,,0.00,541.0,WeatherDisplay:10.37,2013-11-27 16:57:00,
2013-11-27 11:02:00,35.7,10.7,30.41,NW,305,4.0,9.2,35,0.00,CLR,,0.00,548.0,WeatherDisplay:10.37,2013-11-27 17:02:00,
2013-11-27 11:07:00,35.4,9.1,30.41,NNW,341,8.7,10.6,33,0.00,CLR,,0.00,554.0,WeatherDisplay:10.37,2013-11-27 17:07:00,
2013-11-27 11:12:00,36.1,9.7,30.41,WNW,282,7.7,9.2,33,0.00,CLR,,0.00,559.0,WeatherDisplay:10.37,2013-11-27 17:12:00,
2013-11-27 11:17:00,36.2,9.8,30.40,WNW,300,3.0,6.9,33,0.00,CLR,,0.00,561.0,WeatherDisplay:10.37,2013-11-27 17:17:00,
2013-11-27 11:22:00,36.5,10.1,30.40,West,280,5.9,9.2,33,0.00,CLR,,0.00,566.0,WeatherDisplay:10.37,2013-11-27 17:22:00,
2013-11-27 11:27:00,36.8,9.7,30.40,NW,319,10.7,15.0,32,0.00,CLR,,0.00,570.0,WeatherDisplay:10.37,2013-11-27 17:27:00,
2013-11-27 11:32:00,36.9,9.7,30.40,WNW,299,4.6,6.9,32,0.00,CLR,,0.00,573.0,WeatherDisplay:10.37,2013-11-27 17:32:00,
2013-11-27 11:37:00,36.9,9.7,30.40,WSW,254,8.3,10.4,32,0.00,CLR,,0.00,577.0,WeatherDisplay:10.37,2013-11-27 17:37:00,
2013-11-27 11:42:00,37.7,10.4,30.39,NNW,336,8.1,12.7,32,0.00,CLR,,0.00,578.0,WeatherDisplay:10.37,2013-11-27 17:42:00,
2013-11-27 11:47:00,37.5,10.3,30.39,WNW,296,0.9,6.9,32,0.00,CLR,,0.00,577.0,WeatherDisplay:10.37,2013-11-27 17:47:00,
2013-11-27 11:52:00,37.7,10.4,30.39,NW,325,8.7,9.2,32,0.00,CLR,,0.00,580.0,WeatherDisplay:10.37,2013-11-27 17:52:00,
2013-11-27 11:57:00,37.8,10.5,30.39,NW,313,3.3,5.8,32,0.00,CLR,,0.00,582.0,WeatherDisplay:10.37,2013-11-27 17:57:00,
2013-11-27 12:02:00,37.9,9.9,30.38,NW,306,3.0,8.1,31,0.00,CLR,,0.00,582.0,WeatherDisplay:10.37,2013-11-27 18:02:00,
2013-11-27 12:07:00,38.4,9.6,30.38,WNW,299,8.3,11.5,30,0.00,CLR,,0.00,580.0,WeatherDisplay:10.37,2013-11-27 18:07:00,
2013-11-27 12:12:00,38.4,8.9,30.38,NNW,348,5.9,9.2,29,0.00,CLR,,0.00,580.0,WeatherDisplay:10.37,2013-11-27 18:12:00,
2013-11-27 12:17:00,38.1,8.6,30.38,NNW,343,0.9,2.3,29,0.00,CLR,,0.00,580.0,WeatherDisplay:10.37,2013-11-27 18:17:00,
2013-11-27 12:22:00,37.8,9.1,30.37,West,271,5.8,10.4,30,0.00,CLR,,0.00,580.0,WeatherDisplay:10.37,2013-11-27 18:22:00,
2013-11-27 12:27:00,38.6,9.0,30.37,NE,46,6.4,11.5,29,0.00,CLR,,0.00,577.0,WeatherDisplay:10.37,2013-11-27 18:27:00,
2013-11-27 12:32:00,38.9,10.8,30.37,NNW,330,6.8,6.9,31,0.00,CLR,,0.00,575.0,WeatherDisplay:10.37,2013-11-27 18:32:00,
2013-11-27 12:37:00,39.1,8.7,30.37,NW,322,8.5,11.5,28,0.00,CLR,,0.00,573.0,WeatherDisplay:10.37,2013-11-27 18:37:00,
2013-11-27 12:42:00,39.1,8.7,30.36,West,277,3.2,4.0,28,0.00,CLR,,0.00,570.0,WeatherDisplay:10.37,2013-11-27 18:42:00,
2013-11-27 12:47:00,39.1,11.0,30.36,West,260,5.9,8.1,31,0.00,CLR,,0.00,564.0,WeatherDisplay:10.37,2013-11-27 18:47:00,
2013-11-27 12:52:00,40.0,11.0,30.36,SW,227,6.6,8.1,30,0.00,CLR,,0.00,564.0,WeatherDisplay:10.37,2013-11-27 18:52:00,
2013-11-27 12:56:00,40.3,9.7,30.36,NNW,342,4.6,8.1,28,0.00,CLR,,0.00,561.0,WeatherDisplay:10.37,2013-11-27 18:56:00,
2013-11-27 13:01:00,40.0,9.5,30.36,NW,313,1.7,3.5,28,0.00,CLR,,0.00,552.0,WeatherDisplay:10.37,2013-11-27 19:01:00,
2013-11-27 13:06:00,40.5,11.4,30.35,West,265,3.3,10.6,30,0.00,CLR,,0.00,550.0,WeatherDisplay:10.37,2013-11-27 19:06:00,
2013-11-27 13:11:00,41.2,12.1,30.35,WNW,290,3.2,6.9,30,0.00,CLR,,0.00,543.0,WeatherDisplay:10.37,2013-11-27 19:11:00,
2013-11-27 13:16:00,40.5,12.2,30.35,NW,314,2.3,4.0,31,0.00,CLR,,0.00,538.0,WeatherDisplay:10.37,2013-11-27 19:16:00,
2013-11-27 13:21:00,40.9,9.4,30.35,NNW,343,6.1,10.4,27,0.00,CLR,,0.00,533.0,WeatherDisplay:10.37,2013-11-27 19:21:00,
2013-11-27 13:26:00,41.1,8.8,30.35,NW,311,8.9,11.5,26,0.00,CLR,,0.00,524.0,WeatherDisplay:10.37,2013-11-27 19:26:00,
2013-11-27 13:31:00,40.0,6.9,30.34,NNW,338,0.1,2.3,25,0.00,CLR,,0.00,519.0,WeatherDisplay:10.37,2013-11-27 19:31:00,
2013-11-27 13:36:00,40.3,8.9,30.34,WNW,294,7.6,9.2,27,0.00,CLR,,0.00,510.0,WeatherDisplay:10.37,2013-11-27 19:36:00,
2013-11-27 13:41:00,40.2,9.6,30.34,SSW,203,2.9,3.5,28,0.00,CLR,,0.00,501.0,WeatherDisplay:10.37,2013-11-27 19:41:00,
2013-11-27 13:46:00,41.2,10.5,30.34,WSW,242,5.7,12.7,28,0.00,CLR,,0.00,492.0,WeatherDisplay:10.37,2013-11-27 19:46:00,
2013-11-27 13:51:00,41.0,11.1,30.34,WNW,289,4.7,8.1,29,0.00,CLR,,0.00,485.0,WeatherDisplay:10.37,2013-11-27 19:51:00,
2013-11-27 13:56:00,41.0,9.5,30.33,NW,310,4.8,6.9,27,0.00,CLR,,0.00,476.0,WeatherDisplay:10.37,2013-11-27 19:56:00,
2013-11-27 14:01:00,41.9,10.3,30.33,West,271,6.0,6.9,27,0.00,CLR,,0.00,466.0,WeatherDisplay:10.37,2013-11-27 20:01:00,
2013-11-27 14:06:00,41.7,10.1,30.33,SW,227,5.6,6.9,27,0.00,CLR,,0.00,459.0,WeatherDisplay:10.37,2013-11-27 20:06:00,
2013-11-27 14:11:00,41.6,10.0,30.33,WNW,288,8.4,11.5,27,0.00,CLR,,0.00,445.0,WeatherDisplay:10.37,2013-11-27 20:11:00,
2013-11-27 14:16:00,41.5,9.9,30.33,West,274,5.7,8.1,27,0.00,CLR,,0.00,436.0,WeatherDisplay:10.37,2013-11-27 20:16:00,
2013-11-27 14:21:00,41.1,9.6,30.33,WNW,282,5.5,8.1,27,0.00,CLR,,0.00,425.0,WeatherDisplay:10.37,2013-11-27 20:21:00,
2013-11-27 14:26:00,41.3,8.9,30.33,SSW,205,7.2,8.1,26,0.00,CLR,,0.00,415.0,WeatherDisplay:10.37,2013-11-27 20:26:00,
2013-11-27 14:31:00,41.2,8.8,30.33,NW,306,2.3,2.6,26,0.00,CLR,,0.00,401.0,WeatherDisplay:10.37,2013-11-27 20:31:00,
2013-11-27 14:36:00,41.7,8.4,30.33,NNW,333,3.2,8.1,25,0.00,CLR,,0.00,388.0,WeatherDisplay:10.37,2013-11-27 20:36:00,
2013-11-27 14:41:00,41.8,10.2,30.33,WNW,290,4.9,6.9,27,0.00,CLR,,0.00,376.0,WeatherDisplay:10.37,2013-11-27 20:41:00,
2013-11-27 14:46:00,42.1,10.5,30.33,WNW,284,3.1,6.9,27,0.00,CLR,,0.00,364.0,WeatherDisplay:10.37,2013-11-27 20:46:00,
2013-11-27 14:51:00,42.3,8.9,30.32,NNE,12,6.9,9.2,25,0.00,CLR,,0.00,352.0,WeatherDisplay:10.37,2013-11-27 20:51:00,
2013-11-27 14:56:00,42.3,8.9,30.32,NW,310,4.2,5.8,25,0.00,CLR,,0.00,338.0,WeatherDisplay:10.37,2013-11-27 20:56:00,
2013-11-27 15:01:00,42.5,10.0,30.32,WNW,296,3.1,5.8,26,0.00,CLR,,0.00,325.0,WeatherDisplay:10.37,2013-11-27 21:01:00,
2013-11-27 15:06:00,42.4,8.1,30.32,WSW,252,4.9,5.8,24,0.00,CLR,,0.00,313.0,WeatherDisplay:10.37,2013-11-27 21:06:00,
2013-11-27 15:11:00,42.1,8.7,30.32,West,279,2.0,8.1,25,0.00,CLR,,0.00,299.0,WeatherDisplay:10.37,2013-11-27 21:11:00,
2013-11-27 15:16:00,42.8,10.2,30.32,WNW,302,2.2,2.6,26,0.00,CLR,,0.00,281.0,WeatherDisplay:10.37,2013-11-27 21:16:00,
2013-11-27 15:21:00,42.2,8.8,30.32,NNW,327,3.2,5.8,25,0.00,CLR,,0.00,264.0,WeatherDisplay:10.37,2013-11-27 21:21:00,
2013-11-27 15:26:00,42.0,8.7,30.32,WSW,253,1.2,2.6,25,0.00,CLR,,0.00,244.0,WeatherDisplay:10.37,2013-11-27 21:26:00,
2013-11-27 15:31:00,42.2,9.7,30.33,SW,221,1.7,3.5,26,0.00,CLR,,0.00,227.0,WeatherDisplay:10.37,2013-11-27 21:31:00,
2013-11-27 15:36:00,42.7,9.3,30.32,WSW,255,2.3,5.8,25,0.00,CLR,,0.00,211.0,WeatherDisplay:10.37,2013-11-27 21:36:00,
2013-11-27 15:41:00,42.3,8.9,30.32,WNW,291,4.9,6.9,25,0.00,CLR,,0.00,193.0,WeatherDisplay:10.37,2013-11-27 21:41:00,
2013-11-27 15:46:00,42.4,9.0,30.32,WSW,238,3.3,5.8,25,0.00,CLR,,0.00,174.0,WeatherDisplay:10.37,2013-11-27 21:46:00,
2013-11-27 15:51:00,42.3,8.9,30.32,West,267,3.6,6.9,25,0.00,CLR,,0.00,155.0,WeatherDisplay:10.37,2013-11-27 21:51:00,
2013-11-27 15:56:00,42.3,10.6,30.32,WNW,292,4.4,4.4,27,0.00,CLR,,0.00,139.0,WeatherDisplay:10.37,2013-11-27 21:56:00,
2013-11-27 16:01:00,42.1,10.5,30.32,NW,305,1.8,3.5,27,0.00,CLR,,0.00,118.0,WeatherDisplay:10.37,2013-11-27 22:01:00,
2013-11-27 16:06:00,42.4,9.9,30.32,SW,221,2.2,5.3,26,0.00,CLR,,0.00,100.0,WeatherDisplay:10.37,2013-11-27 22:06:00,
2013-11-27 16:11:00,41.6,9.2,30.32,WNW,298,1.8,3.5,26,0.00,CLR,,0.00,84.0,WeatherDisplay:10.37,2013-11-27 22:11:00,
2013-11-27 16:16:00,41.5,9.9,30.32,WNW,287,0.8,2.3,27,0.00,CLR,,0.00,49.0,WeatherDisplay:10.37,2013-11-27 22:16:00,
2013-11-27 16:21:00,41.3,9.8,30.31,West,267,0.9,1.3,27,0.00,CLR,,0.00,23.0,WeatherDisplay:10.37,2013-11-27 22:21:00,
2013-11-27 16:26:00,41.0,11.1,30.31,SW,225,3.0,3.5,29,0.00,CLR,,0.00,23.0,WeatherDisplay:10.37,2013-11-27 22:26:00,
2013-11-27 16:31:00,40.6,12.3,30.31,SW,224,1.1,5.8,31,0.00,CLR,,0.00,19.0,WeatherDisplay:10.37,2013-11-27 22:31:00,
2013-11-27 16:36:00,40.1,12.6,30.31,SW,234,1.2,3.5,32,0.00,CLR,,0.00,16.0,WeatherDisplay:10.37,2013-11-27 22:36:00,
2013-11-27 16:41:00,39.6,12.8,30.31,SSW,210,1.4,3.5,33,0.00,CLR,,0.00,14.0,WeatherDisplay:10.37,2013-11-27 22:41:00,
2013-11-27 16:46:00,39.2,13.1,30.31,SW,216,2.8,5.8,34,0.00,CLR,,0.00,12.0,WeatherDisplay:10.37,2013-11-27 22:46:00,
2013-11-27 16:51:00,38.8,13.4,30.32,South,172,0.2,2.3,35,0.00,CLR,,0.00,11.0,WeatherDisplay:10.37,2013-11-27 22:51:00,
2013-11-27 16:56:00,38.3,13.6,30.32,South,173,0.9,1.2,36,0.00,CLR,,0.00,7.0,WeatherDisplay:10.37,2013-11-27 22:56:00,
2013-11-27 17:01:00,38.0,13.4,30.32,SSW,208,1.5,2.3,36,0.00,CLR,,0.00,5.0,WeatherDisplay:10.37,2013-11-27 23:01:00,
2013-11-27 17:06:00,37.6,13.6,30.32,SSW,210,2.5,3.5,37,0.00,CLR,,0.00,0.0,WeatherDisplay:10.37,2013-11-27 23:06:00,
2013-11-27 17:11:00,37.4,14.1,30.32,SW,230,2.0,3.5,38,0.00,CLR,,0.00,0.0,WeatherDisplay:10.37,2013-11-27 23:11:00,
2013-11-27 17:16:00,37.1,13.8,30.32,SSW,205,2.0,8.1,38,0.00,CLR,,0.00,0.0,WeatherDisplay:10.37,2013-11-27 23:16:00,
2013-11-27 17:21:00,36.9,14.2,30.32,SW,217,2.4,6.9,39,0.00,CLR,,0.00,0.0,WeatherDisplay:10.37,2013-11-27 23:21:00,
2013-11-27 17:26:00,36.7,14.6,30.32,SSW,212,1.7,3.5,40,0.00,CLR,,0.00,0.0,WeatherDisplay:10.37,2013-11-27 23:26:00,
2013-11-27 17:31:00,36.5,14.4,30.33,SSW,207,0.6,3.5,40,0.00,CLR,,0.00,0.0,WeatherDisplay:10.37,2013-11-27 23:31:00,
2013-11-27 17:36:00,36.2,14.7,30.33,SW,225,2.6,3.5,41,0.00,CLR,,0.00,0.0,WeatherDisplay:10.37,2013-11-27 23:36:00,
2013-11-27 17:41:00,35.9,15.0,30.33,SW,234,1.4,3.5,42,0.00,CLR,,0.00,0.0,WeatherDisplay:10.37,2013-11-27 23:41:00,
2013-11-27 17:46:00,35.5,14.6,30.33,SW,217,0.8,2.3,42,0.00,CLR,,0.00,0.0,WeatherDisplay:10.37,2013-11-27 23:46:00,
2013-11-27 17:52:00,35.2,14.9,30.33,SSW,205,1.1,3.5,43,0.00,CLR,,0.00,0.0,WeatherDisplay:10.37,2013-11-27 23:52:00,
2013-11-27 17:57:00,35.0,14.7,30.33,SSW,206,0.7,2.3,43,0.00,CLR,,0.00,0.0,WeatherDisplay:10.37,2013-11-27 23:57:00,
2013-11-27 18:02:00,34.6,14.9,30.33,SW,234,0.0,1.2,44,0.00,CLR,,0.00,0.0,WeatherDisplay:10.37,2013-11-28 00:02:00,
2013-11-27 18:07:00,34.4,15.2,30.33,SW,234,0.0,0.0,45,0.00,CLR,,0.00,0.0,WeatherDisplay:10.37,2013-11-28 00:07:00,
2013-11-27 18:12:00,34.1,16.4,30.33,SW,234,0.0,0.0,48,0.00,CLR,,0.00,0.0,WeatherDisplay:10.37,2013-11-28 00:12:00,
2013-11-27 18:17:00,33.6,15.5,30.33,SW,234,0.0,0.0,47,0.00,CLR,,0.00,0.0,WeatherDisplay:10.37,2013-11-28 00:17:00,
2013-11-27 18:22:00,31.9,16.7,30.33,SW,234,0.0,0.0,53,0.00,CLR,,0.00,0.0,WeatherDisplay:10.37,2013-11-28 00:22:00,
2013-11-27 18:27:00,30.9,18.2,30.33,SW,234,0.0,0.0,59,0.00,CLR,,0.00,0.0,WeatherDisplay:10.37,2013-11-28 00:27:00,
2013-11-27 18:32:00,30.0,18.2,30.33,SW,234,0.0,0.0,61,0.00,CLR,,0.00,0.0,WeatherDisplay:10.37,2013-11-28 00:32:00,
2013-11-27 18:37:00,29.5,17.7,30.33,SW,234,0.0,0.0,61,0.00,CLR,,0.00,0.0,WeatherDisplay:10.37,2013-11-28 00:37:00,
2013-11-27 18:42:00,29.4,16.8,30.33,SW,234,0.0,0.0,59,0.00,CLR,,0.00,0.0,WeatherDisplay:10.37,2013-11-28 00:42:00,
2013-11-27 18:47:00,29.3,15.9,30.33,SW,234,0.0,0.0,57,0.00,CLR,,0.00,0.0,WeatherDisplay:10.37,2013-11-28 00:47:00,
2013-11-27 18:52:00,29.3,15.9,30.33,SW,234,0.0,0.0,57,0.00,CLR,,0.00,0.0,WeatherDisplay:10.37,2013-11-28 00:52:00,
2013-11-27 18:57:00,29.1,16.5,30.33,SW,234,0.0,0.0,59,0.00,CLR,,0.00,0.0,WeatherDisplay:10.37,2013-11-28 00:57:00,
2013-11-27 19:02:00,28.5,17.1,30.33,SW,234,0.0,0.0,62,0.00,CLR,,0.00,0.0,WeatherDisplay:10.37,2013-11-28 01:02:00,
2013-11-27 19:07:00,28.1,17.1,30.34,SW,234,0.0,0.0,63,0.00,CLR,,0.00,0.0,WeatherDisplay:10.37,2013-11-28 01:07:00,
2013-11-27 19:12:00,28.0,17.0,30.34,SW,234,0.0,0.0,63,0.00,CLR,,0.00,0.0,WeatherDisplay:10.37,2013-11-28 01:12:00,
2013-11-27 19:17:00,27.7,17.5,30.34,SW,234,0.0,0.0,65,0.00,CLR,,0.00,0.0,WeatherDisplay:10.37,2013-11-28 01:17:00,
2013-11-27 19:22:00,27.5,17.6,30.34,SW,234,0.0,0.0,66,0.00,CLR,,0.00,0.0,WeatherDisplay:10.37,2013-11-28 01:22:00,
2013-11-27 19:27:00,27.4,17.9,30.34,SW,234,0.0,0.0,67,0.00,CLR,,0.00,0.0,WeatherDisplay:10.37,2013-11-28 01:27:00,
2013-11-27 19:32:00,27.2,18.0,30.35,SW,234,0.0,0.0,68,0.00,CLR,,0.00,0.0,WeatherDisplay:10.37,2013-11-28 01:32:00,
2013-11-27 19:37:00,26.9,17.7,30.35,SW,234,0.0,0.0,68,0.00,CLR,,0.00,0.0,WeatherDisplay:10.37,2013-11-28 01:37:00,
2013-11-27 19:42:00,26.6,17.8,30.35,SW,234,0.0,0.0,69,0.00,CLR,,0.00,0.0,WeatherDisplay:10.37,2013-11-28 01:42:00,
2013-11-27 19:47:00,26.5,18.0,30.35,SW,234,0.0,0.0,70,0.00,CLR,,0.00,0.0,WeatherDisplay:10.37,2013-11-28 01:47:00,
2013-11-27 19:52:00,26.3,17.8,30.36,SW,234,0.0,0.0,70,0.00,CLR,,0.00,0.0,WeatherDisplay:10.37,2013-11-28 01:52:00,
2013-11-27 19:57:00,26.1,17.6,30.36,SW,234,0.0,0.0,70,0.00,CLR,,0.00,0.0,WeatherDisplay:10.37,2013-11-28 01:57:00,
2013-11-27 20:02:00,26.1,18.0,30.36,SW,234,0.0,0.0,71,0.00,CLR,,0.00,0.0,WeatherDisplay:10.37,2013-11-28 02:02:00,
2013-11-27 20:07:00,25.9,17.8,30.36,SW,234,0.0,0.0,71,0.00,CLR,,0.00,0.0,WeatherDisplay:10.37,2013-11-28 02:07:00,
2013-11-27 20:12:00,25.7,17.9,30.36,SW,234,0.0,0.0,72,0.00,CLR,,0.00,0.0,WeatherDisplay:10.37,2013-11-28 02:12:00,
2013-11-27 20:17:00,25.6,18.1,30.37,SW,234,0.0,0.0,73,0.00,CLR,,0.00,0.0,WeatherDisplay:10.37,2013-11-28 02:17:00,
2013-11-27 20:22:00,25.2,17.8,30.37,SW,234,0.0,0.0,73,0.00,CLR,,0.00,0.0,WeatherDisplay:10.37,2013-11-28 02:22:00,
2013-11-27 20:27:00,25.2,18.1,30.36,SW,234,0.0,0.0,74,0.00,CLR,,0.00,0.0,WeatherDisplay:10.37,2013-11-28 02:27:00,
2013-11-27 20:32:00,25.1,18.3,30.36,SW,234,0.0,0.0,75,0.00,CLR,,0.00,0.0,WeatherDisplay:10.37,2013-11-28 02:32:00,
2013-11-27 20:37:00,25.0,18.2,30.37,SW,234,0.0,0.0,75,0.00,CLR,,0.00,0.0,WeatherDisplay:10.37,2013-11-28 02:37:00,
2013-11-27 20:42:00,24.8,18.0,30.37,SW,234,0.0,0.0,75,0.00,CLR,,0.00,0.0,WeatherDisplay:10.37,2013-11-28 02:42:00,
2013-11-27 20:47:00,24.5,18.0,30.37,SW,234,0.0,0.0,76,0.00,CLR,,0.00,0.0,WeatherDisplay:10.37,2013-11-28 02:47:00,
2013-11-27 20:52:00,24.5,18.3,30.37,SW,234,0.0,0.0,77,0.00,CLR,,0.00,0.0,WeatherDisplay:10.37,2013-11-28 02:52:00,
2013-11-27 20:57:00,24.5,18.3,30.37,SW,234,0.0,0.0,77,0.00,CLR,,0.00,0.0,WeatherDisplay:10.37,2013-11-28 02:57:00,
2013-11-27 21:02:00,24.3,17.8,30.37,SW,234,0.0,0.0,76,0.00,CLR,,0.00,0.0,WeatherDisplay:10.37,2013-11-28 03:02:00,
2013-11-27 21:07:00,24.1,17.9,30.37,SW,234,0.0,0.0,77,0.00,CLR,,0.00,0.0,WeatherDisplay:10.37,2013-11-28 03:07:00,
2013-11-27 21:12:00,23.9,18.0,30.37,SW,234,0.0,0.0,78,0.00,CLR,,0.00,0.0,WeatherDisplay:10.37,2013-11-28 03:12:00,
2013-11-27 21:17:00,23.7,17.8,30.36,SW,234,0.0,0.0,78,0.00,CLR,,0.00,0.0,WeatherDisplay:10.37,2013-11-28 03:17:00,
2013-11-27 21:22:00,23.4,17.8,30.36,SW,234,0.0,0.0,79,0.00,CLR,,0.00,0.0,WeatherDisplay:10.37,2013-11-28 03:22:00,
2013-11-27 21:27:00,23.1,17.6,30.37,SW,234,0.0,0.0,79,0.00,CLR,,0.00,0.0,WeatherDisplay:10.37,2013-11-28 03:27:00,
2013-11-27 21:32:00,23.0,17.7,30.36,SW,234,0.0,0.0,80,0.00,CLR,,0.00,0.0,WeatherDisplay:10.37,2013-11-28 03:32:00,
2013-11-27 21:37:00,22.9,17.7,30.36,SW,234,0.0,0.0,80,0.00,CLR,,0.00,0.0,WeatherDisplay:10.37,2013-11-28 03:37:00,
2013-11-27 21:42:00,23.0,17.7,30.36,SW,234,0.0,0.0,80,0.00,CLR,,0.00,0.0,WeatherDisplay:10.37,2013-11-28 03:42:00,
2013-11-27 21:47:00,23.0,17.7,30.36,SW,234,0.0,0.0,80,0.00,CLR,,0.00,0.0,WeatherDisplay:10.37,2013-11-28 03:47:00,
2013-11-27 21:52:00,22.6,17.4,30.36,SW,234,0.0,0.0,80,0.00,CLR,,0.00,0.0,WeatherDisplay:10.37,2013-11-28 03:52:00,
2013-11-27 21:57:00,22.5,17.5,30.36,SW,234,0.0,0.0,81,0.00,CLR,,0.00,0.0,WeatherDisplay:10.37,2013-11-28 03:57:00,
2013-11-27 22:02:00,22.5,17.5,30.36,SW,234,0.0,0.0,81,0.00,CLR,,0.00,0.0,WeatherDisplay:10.37,2013-11-28 04:02:00,
2013-11-27 22:07:00,22.4,17.5,30.36,SW,234,0.0,0.0,81,0.00,CLR,,0.00,0.0,WeatherDisplay:10.37,2013-11-28 04:07:00,
2013-11-27 22:12:00,22.4,17.5,30.36,SW,234,0.0,0.0,81,0.00,CLR,,0.00,0.0,WeatherDisplay:10.37,2013-11-28 04:12:00,
2013-11-27 22:17:00,22.2,17.3,30.36,SW,234,0.0,0.0,81,0.00,CLR,,0.00,0.0,WeatherDisplay:10.37,2013-11-28 04:17:00,
2013-11-27 22:22:00,22.2,17.5,30.36,SW,234,0.0,0.0,82,0.00,CLR,,0.00,0.0,WeatherDisplay:10.37,2013-11-28 04:22:00,
2013-11-27 22:27:00,21.9,17.2,30.36,SW,234,0.0,0.0,82,0.00,CLR,,0.00,0.0,WeatherDisplay:10.37,2013-11-28 04:27:00,
2013-11-27 22:32:00,21.9,17.5,30.36,SW,234,0.0,0.0,83,0.00,CLR,,0.00,0.0,WeatherDisplay:10.37,2013-11-28 04:32:00,
2013-11-27 22:37:00,21.8,17.4,30.36,SW,236,2.1,2.3,83,0.00,CLR,,0.00,0.0,WeatherDisplay:10.37,2013-11-28 04:37:00,
2013-11-27 22:42:00,21.8,17.4,30.36,SW,236,1.3,1.3,83,0.00,CLR,,0.00,0.0,WeatherDisplay:10.37,2013-11-28 04:42:00,
2013-11-27 22:47:00,21.7,17.3,30.36,SW,236,0.0,0.0,83,0.00,CLR,,0.00,0.0,WeatherDisplay:10.37,2013-11-28 04:47:00,
2013-11-27 22:52:00,21.6,17.2,30.36,SW,236,0.0,0.0,83,0.00,CLR,,0.00,0.0,WeatherDisplay:10.37,2013-11-28 04:52:00,
2013-11-27 22:57:00,21.7,17.6,30.36,SW,236,0.0,0.0,84,0.00,CLR,,0.00,0.0,WeatherDisplay:10.37,2013-11-28 04:57:00,
2013-11-27 23:01:00,21.7,17.6,30.36,SW,236,0.0,0.0,84,0.00,CLR,,0.00,0.0,WeatherDisplay:10.37,2013-11-28 05:01:00,
2013-11-27 23:02:00,21.7,17.6,30.36,SW,236,0.0,0.0,84,0.00,CLR,,0.00,0.0,WeatherDisplay:10.37,2013-11-28 05:02:00,
2013-11-27 23:03:00,21.6,17.5,30.36,SW,236,0.0,0.0,84,0.00,CLR,,0.00,0.0,WeatherDisplay:10.37,2013-11-28 05:03:00,
2013-11-27 23:08:00,21.3,17.2,30.36,SW,236,0.0,0.0,84,0.00,CLR,,0.00,0.0,WeatherDisplay:10.37,2013-11-28 05:08:00,
2013-11-27 23:13:00,21.2,17.1,30.36,SW,236,0.0,0.0,84,0.00,CLR,,0.00,0.0,WeatherDisplay:10.37,2013-11-28 05:13:00,
2013-11-27 23:18:00,21.1,17.0,30.36,SW,236,0.0,0.0,84,0.00,CLR,,0.00,0.0,WeatherDisplay:10.37,2013-11-28 05:18:00,
2013-11-27 23:23:00,21.1,17.0,30.36,SW,236,0.0,0.0,84,0.00,CLR,,0.00,0.0,WeatherDisplay:10.37,2013-11-28 05:23:00,
2013-11-27 23:28:00,21.1,17.3,30.36,SW,236,0.0,0.0,85,0.00,CLR,,0.00,0.0,WeatherDisplay:10.37,2013-11-28 05:28:00,
2013-11-27 23:33:00,20.7,16.9,30.36,SW,236,0.0,0.0,85,0.00,CLR,,0.00,0.0,WeatherDisplay:10.37,2013-11-28 05:33:00,
2013-11-27 23:38:00,20.6,16.8,30.36,SW,236,0.0,0.0,85,0.00,CLR,,0.00,0.0,WeatherDisplay:10.37,2013-11-28 05:38:00,
2013-11-27 23:43:00,20.7,16.9,30.37,SW,236,0.0,0.0,85,0.00,CLR,,0.00,0.0,WeatherDisplay:10.37,2013-11-28 05:43:00,
2013-11-27 23:48:00,20.6,16.8,30.37,SW,236,0.0,0.0,85,0.00,CLR,,0.00,0.0,WeatherDisplay:10.37,2013-11-28 05:48:00,
2013-11-27 23:53:00,20.8,17.3,30.37,SW,236,0.0,0.0,86,0.00,CLR,,0.00,0.0,WeatherDisplay:10.37,2013-11-28 05:53:00,
2013-11-27 23:58:00,20.6,17.1,30.37,SW,236,0.0,0.0,86,0.00,CLR,,0.00,0.0,WeatherDisplay:10.37,2013-11-28 05:58:00,